Time;durP1;ratioP1;P1;durP2;ratioP2;P2;SDS_P1;SDS_P2;PMS_P1;PMS_P2;Temp;Humidity;BMP_temperature;BMP_pressure;BME280_temperature;BME280_humidity;BME280_pressure;Samples;Min_cycle;Max_cycle;Signal;HPM_P1;HPM_P2
2022/04/17 00:03:09;;;;;;;21.27;8.32;;;;;;;0.89;71.05;100749.41;8541124;27;20113;-75
2022/04/17 00:07:10;;;;;;;19.35;7.43;;;;;;;0.83;71.55;100751.03;8542727;27;20299;-76
2022/04/17 00:11:11;;;;;;;17.63;7.25;;;;;;;0.76;71.90;100738.75;8554136;27;20068;-75
2022/04/17 00:15:12;;;;;;;19.13;6.80;;;;;;;0.65;71.69;100752.66;8481856;27;20043;-75
2022/04/17 00:19:13;;;;;;;17.58;6.85;;;;;;;0.62;71.49;100747.75;8511626;27;20109;-76
2022/04/17 00:23:14;;;;;;;20.30;7.28;;;;;;;0.61;72.01;100740.78;8530727;27;20047;-75
2022/04/17 00:27:15;;;;;;;19.33;6.93;;;;;;;0.49;72.71;100737.09;8546254;27;20133;-76
2022/04/17 00:31:16;;;;;;;22.33;7.35;;;;;;;0.38;72.54;100726.06;8524981;27;20035;-76
2022/04/17 00:35:16;;;;;;;18.65;7.63;;;;;;;0.39;72.21;100733.00;8519112;27;20041;-76
2022/04/17 00:39:18;;;;;;;21.88;8.30;;;;;;;0.35;72.37;100731.78;8482217;27;20042;-75
2022/04/17 00:43:25;;;;;;;20.42;7.57;;;;;;;0.31;72.51;100735.88;8480438;27;20079;-76
2022/04/17 00:47:26;;;;;;;18.48;7.57;;;;;;;0.29;72.64;100729.94;8472470;27;20051;-75
2022/04/17 00:51:27;;;;;;;17.35;6.93;;;;;;;0.23;72.79;100730.72;8487774;27;20051;-76
2022/04/17 00:55:29;;;;;;;14.90;6.53;;;;;;;0.20;73.12;100723.19;8482023;27;20066;-76
2022/04/17 00:59:29;;;;;;;21.20;6.22;;;;;;;0.13;72.94;100727.66;8474870;27;20173;-76
2022/04/17 01:03:31;;;;;;;19.35;7.18;;;;;;;0.09;73.55;100726.41;8480546;27;20650;-75
2022/04/17 01:07:32;;;;;;;20.90;6.90;;;;;;;0.07;73.53;100728.44;8478854;27;20076;-76
2022/04/17 01:11:36;;;;;;;16.70;6.30;;;;;;;0.04;73.79;100723.56;8443618;27;20047;-76
2022/04/17 01:15:37;;;;;;;15.10;6.13;;;;;;;0.02;74.34;100725.56;8479197;27;20039;-75
2022/04/17 01:19:39;;;;;;;19.35;6.50;;;;;;;-0.03;74.22;100728.00;8478417;27;20044;-76
2022/04/17 01:28:01;;;;;;;20.63;6.65;;;;;;;-0.06;74.00;100712.50;8484432;27;20043;-76
2022/04/17 01:32:07;;;;;;;16.58;6.32;;;;;;;-0.08;73.82;100715.34;8484428;27;20176;-75
2022/04/17 01:36:08;;;;;;;18.00;5.93;;;;;;;-0.10;74.07;100714.72;8480949;27;20055;-75
2022/04/17 01:40:09;;;;;;;16.85;6.43;;;;;;;-0.13;74.44;100716.97;8503441;27;20504;-75
2022/04/17 01:44:10;;;;;;;13.60;5.90;;;;;;;-0.16;74.31;100706.75;8463506;27;20046;-75
2022/04/17 01:48:11;;;;;;;15.38;5.95;;;;;;;-0.21;74.72;100709.97;8521928;27;20134;-75
2022/04/17 01:52:12;;;;;;;15.90;6.38;;;;;;;-0.27;75.09;100699.34;8518492;27;20043;-75
2022/04/17 01:56:13;;;;;;;15.55;6.13;;;;;;;-0.32;75.11;100704.44;8518246;27;20071;-75
2022/04/17 02:00:14;;;;;;;17.30;7.20;;;;;;;-0.36;75.02;100700.53;8485683;27;20045;-75
2022/04/17 02:04:16;;;;;;;17.58;6.35;;;;;;;-0.43;75.33;100696.03;8510968;27;20504;-75
2022/04/17 02:08:17;;;;;;;15.93;6.93;;;;;;;-0.51;75.17;100698.84;8459682;27;20057;-74
2022/04/17 02:12:18;;;;;;;14.48;6.38;;;;;;;-0.51;75.38;100696.19;8475592;27;20121;-75
2022/04/17 02:16:19;;;;;;;15.70;6.25;;;;;;;-0.56;75.46;100690.66;8497901;27;20042;-75
2022/04/17 02:20:20;;;;;;;27.15;12.52;;;;;;;-0.63;76.02;100689.81;8512063;27;20039;-75
2022/04/17 02:24:21;;;;;;;21.00;7.45;;;;;;;-0.69;76.58;100698.59;8500966;27;20050;-75
2022/04/17 02:28:22;;;;;;;15.00;6.65;;;;;;;-0.78;76.19;100691.78;8508051;27;20043;-75
2022/04/17 02:32:23;;;;;;;19.92;7.57;;;;;;;-0.78;76.25;100691.78;8529056;27;20057;-76
2022/04/17 02:36:24;;;;;;;19.08;8.60;;;;;;;-0.82;76.00;100690.53;8510990;27;20062;-75
2022/04/17 02:40:25;;;;;;;20.73;8.50;;;;;;;-0.87;75.91;100692.97;8506376;27;20050;-75
2022/04/17 02:44:26;;;;;;;15.48;7.20;;;;;;;-0.88;76.33;100691.31;8490011;27;20047;-75
2022/04/17 02:48:27;;;;;;;15.23;7.05;;;;;;;-0.90;76.46;100682.75;8557990;27;20057;-75
2022/04/17 02:52:28;;;;;;;18.35;7.00;;;;;;;-0.93;76.30;100699.03;8538989;27;20603;-75
2022/04/17 02:56:29;;;;;;;19.38;7.50;;;;;;;-0.99;76.60;100705.13;8530123;27;20054;-75
2022/04/17 03:00:31;;;;;;;14.25;6.95;;;;;;;-1.03;76.73;100709.19;8528473;27;20038;-75
2022/04/17 03:08:52;;;;;;;17.05;7.70;;;;;;;-1.10;77.12;100709.13;8518659;27;20046;-75
2022/04/17 03:12:53;;;;;;;18.70;7.88;;;;;;;-1.18;77.51;100705.81;8534970;27;20054;-75
2022/04/17 03:16:54;;;;;;;20.23;7.78;;;;;;;-1.24;77.81;100717.19;8528173;27;20101;-75
2022/04/17 03:20:55;;;;;;;19.65;8.43;;;;;;;-1.25;77.29;100710.25;8508256;27;20035;-75
2022/04/17 03:24:56;;;;;;;23.83;8.00;;;;;;;-1.32;77.65;100711.00;8500170;27;20068;-75
2022/04/17 03:28:59;;;;;;;17.13;7.75;;;;;;;-1.31;77.57;100715.31;8508187;27;20054;-76
2022/04/17 03:33:01;;;;;;;18.35;8.15;;;;;;;-1.32;77.77;100710.19;8498057;27;20171;-76
2022/04/17 03:37:03;;;;;;;18.90;8.32;;;;;;;-1.33;77.55;100709.41;8517159;27;20042;-75
2022/04/17 03:41:04;;;;;;;22.08;9.02;;;;;;;-1.36;77.92;100712.41;8495216;27;20084;-76
2022/04/17 03:45:08;;;;;;;23.05;8.52;;;;;;;-1.36;77.66;100709.75;8531773;27;20035;-75
2022/04/17 03:49:08;;;;;;;24.25;9.35;;;;;;;-1.34;77.69;100713.06;8511699;27;20059;-75
2022/04/17 03:53:09;;;;;;;25.50;10.45;;;;;;;-1.33;77.66;100714.69;8546061;27;20057;-75
2022/04/17 03:57:10;;;;;;;22.45;9.55;;;;;;;-1.34;77.64;100718.34;8537628;27;20039;-75
2022/04/17 04:01:11;;;;;;;26.35;10.02;;;;;;;-1.31;78.12;100723.25;8477699;27;20058;-75
2022/04/17 04:05:12;;;;;;;20.63;8.77;;;;;;;-1.29;78.12;100715.94;8533581;27;20133;-75
2022/04/17 04:09:13;;;;;;;23.48;9.70;;;;;;;-1.32;77.85;100716.31;8542751;27;20054;-75
2022/04/17 04:13:15;;;;;;;26.55;10.32;;;;;;;-1.29;77.82;100710.63;8567665;27;20042;-75
2022/04/17 04:17:16;;;;;;;24.35;11.18;;;;;;;-1.31;78.26;100706.53;8549873;27;20411;-74
2022/04/17 04:21:17;;;;;;;27.77;11.93;;;;;;;-1.25;78.31;100710.25;8495267;27;20051;-75
2022/04/17 04:25:18;;;;;;;26.83;12.10;;;;;;;-1.23;77.99;100703.75;8542120;27;20095;-76
2022/04/17 04:29:19;;;;;;;32.33;11.48;;;;;;;-1.18;77.95;100700.50;8528845;27;20133;-76
2022/04/17 04:33:20;;;;;;;26.90;11.73;;;;;;;-1.14;78.08;100701.75;8555655;27;20483;-75
2022/04/17 04:37:21;;;;;;;32.35;11.95;;;;;;;-1.09;77.78;100709.94;8507570;27;20180;-75
2022/04/17 04:41:22;;;;;;;35.67;13.00;;;;;;;-1.02;78.23;100700.22;8533885;27;20043;-75
2022/04/17 04:49:43;;;;;;;25.38;11.43;;;;;;;-0.88;77.67;100686.00;8536677;27;20055;-75
2022/04/17 04:53:43;;;;;;;29.58;12.15;;;;;;;-0.77;77.60;100704.03;8545025;27;20035;-76
2022/04/17 04:57:45;;;;;;;27.45;11.10;;;;;;;-0.64;77.69;100709.41;8564872;27;20058;-76
2022/04/17 05:01:46;;;;;;;27.15;11.65;;;;;;;-0.51;77.62;100698.03;8531386;27;20066;-76
2022/04/17 05:05:47;;;;;;;28.85;11.43;;;;;;;-0.40;77.62;100704.59;8531952;27;20131;-75
2022/04/17 05:09:47;;;;;;;30.65;12.30;;;;;;;-0.30;77.93;100699.75;8527594;27;20050;-75
2022/04/17 05:13:49;;;;;;;25.67;10.82;;;;;;;-0.17;77.50;100700.63;8534546;27;20408;-75
2022/04/17 05:17:49;;;;;;;24.73;9.98;;;;;;;-0.05;77.36;100703.47;8531823;27;20042;-75
2022/04/17 05:21:56;;;;;;;26.52;11.13;;;;;;;0.07;77.65;100707.19;8531021;27;20556;-75
2022/04/17 05:26:01;;;;;;;25.33;10.25;;;;;;;0.17;77.53;100702.31;8539690;27;20077;-75
2022/04/17 05:30:02;;;;;;;25.80;9.70;;;;;;;0.33;77.24;100696.59;8544440;27;20497;-76
2022/04/17 05:34:03;;;;;;;24.63;9.45;;;;;;;0.45;77.05;100703.97;8507216;27;20054;-76
2022/04/17 05:38:05;;;;;;;23.23;9.90;;;;;;;0.72;76.75;100705.63;8520322;27;20051;-76
2022/04/17 05:42:06;;;;;;;25.50;10.27;;;;;;;0.88;76.06;100705.19;8561253;27;20419;-76
2022/04/17 05:46:07;;;;;;;21.02;8.23;;;;;;;1.06;75.71;100702.69;8490855;27;20055;-76
2022/04/17 05:50:08;;;;;;;23.65;8.98;;;;;;;1.23;75.20;100703.91;8563986;27;20066;-75
2022/04/17 05:54:09;;;;;;;18.50;8.00;;;;;;;1.39;74.72;100696.47;8545034;27;20046;-75
2022/04/17 05:58:10;;;;;;;26.83;8.88;;;;;;;1.54;74.00;100689.03;8514532;27;20043;-76
2022/04/17 06:02:11;;;;;;;22.45;8.50;;;;;;;1.67;73.46;100697.00;8503149;27;20061;-76
2022/04/17 06:06:12;;;;;;;22.05;7.97;;;;;;;1.82;72.84;100692.19;8545176;27;20046;-76
2022/04/17 06:10:14;;;;;;;17.30;7.63;;;;;;;2.03;72.38;100697.19;8548779;27;20050;-77
2022/04/17 06:14:15;;;;;;;16.88;7.03;;;;;;;2.25;71.65;100699.53;8539433;27;20457;-76
2022/04/17 06:18:15;;;;;;;21.27;6.90;;;;;;;2.47;71.51;100696.28;8527368;27;20137;-78
2022/04/17 06:22:18;;;;;;;16.85;6.90;;;;;;;2.68;70.66;100703.09;8512927;27;20042;-76
2022/04/17 06:26:19;;;;;;;16.63;6.00;;;;;;;2.80;70.13;100685.31;8493624;27;20057;-76
2022/04/17 06:30:21;;;;;;;12.80;5.80;;;;;;;2.94;70.18;100684.19;8478731;27;20042;-77
2022/04/17 06:34:22;;;;;;;13.75;6.35;;;;;;;3.03;69.86;100683.88;8545576;27;20162;-76
2022/04/17 06:38:23;;;;;;;19.02;7.38;;;;;;;3.17;69.65;100680.06;8550917;27;20054;-76
2022/04/17 06:42:24;;;;;;;12.45;6.10;;;;;;;3.27;68.69;100691.03;8508349;27;20086;-77
2022/04/17 06:46:25;;;;;;;9.82;5.00;;;;;;;3.35;68.53;100682.72;8539108;27;20457;-76
2022/04/17 06:50:26;;;;;;;14.70;6.22;;;;;;;3.51;68.11;100686.63;8531667;27;20050;-78
2022/04/17 06:54:27;;;;;;;19.33;6.03;;;;;;;3.62;67.33;100678.69;8544573;27;20057;-77
2022/04/17 06:58:28;;;;;;;11.07;5.00;;;;;;;3.75;66.93;100683.84;8545704;27;20046;-78
2022/04/17 07:02:29;;;;;;;10.15;5.05;;;;;;;3.83;66.71;100691.56;8526277;27;20481;-78
2022/04/17 07:06:30;;;;;;;18.20;5.55;;;;;;;3.92;66.18;100685.91;8548595;27;20097;-73
2022/04/17 07:10:32;;;;;;;8.85;4.05;;;;;;;4.07;65.25;100680.97;8460613;28;20075;-76
2022/04/17 07:14:33;;;;;;;10.68;4.93;;;;;;;4.20;64.77;100670.88;8517636;27;20118;-75
2022/04/17 07:18:34;;;;;;;12.02;5.72;;;;;;;4.26;63.72;100669.16;8518053;27;20070;-78
2022/04/17 07:22:37;;;;;;;12.35;5.13;;;;;;;4.43;63.82;100670.13;8523582;27;20043;-77
2022/04/17 07:26:38;;;;;;;12.40;4.95;;;;;;;4.68;62.27;100660.03;8541320;27;20626;-77
2022/04/17 07:30:39;;;;;;;11.23;5.05;;;;;;;4.74;62.56;100670.84;8548520;27;20039;-76
2022/04/17 07:34:40;;;;;;;10.55;4.68;;;;;;;4.82;62.07;100662.47;8557318;27;20050;-77
2022/04/17 07:38:41;;;;;;;9.65;4.70;;;;;;;4.93;61.91;100664.31;8531978;27;20078;-77
2022/04/17 07:42:45;;;;;;;9.75;4.38;;;;;;;5.09;61.78;100661.75;8530626;27;20083;-77
2022/04/17 07:46:46;;;;;;;17.48;7.95;;;;;;;5.29;60.68;100661.38;8554995;27;20126;-75
2022/04/17 07:50:49;;;;;;;11.82;5.43;;;;;;;5.33;60.63;100654.50;8522978;27;20061;-77
2022/04/17 07:54:50;;;;;;;22.65;9.82;;;;;;;5.45;60.20;100652.59;8522128;27;20049;-76
2022/04/17 07:58:51;;;;;;;8.88;4.00;;;;;;;5.68;58.32;100642.84;8559744;27;20421;-76
2022/04/17 08:02:55;;;;;;;8.25;4.20;;;;;;;5.72;58.73;100646.66;8553134;27;20055;-77
2022/04/17 08:06:56;;;;;;;7.93;3.60;;;;;;;5.86;57.87;100642.66;8542070;27;20080;-76
2022/04/17 08:10:57;;;;;;;8.38;3.42;;;;;;;6.07;56.95;100642.00;8528274;27;20046;-77
2022/04/17 08:14:58;;;;;;;6.25;2.80;;;;;;;6.18;55.61;100635.78;8525087;27;20091;-77
2022/04/17 08:18:59;;;;;;;4.30;2.45;;;;;;;6.31;54.63;100635.44;8534769;27;20096;-77
2022/04/17 08:23:00;;;;;;;5.50;2.60;;;;;;;6.52;54.15;100625.03;8553472;27;20129;-78
2022/04/17 08:27:01;;;;;;;9.07;2.92;;;;;;;6.70;53.12;100627.47;8536972;27;20518;-77
2022/04/17 08:31:02;;;;;;;8.20;2.28;;;;;;;6.71;51.63;100623.72;8533997;27;20047;-78
2022/04/17 08:35:07;;;;;;;8.63;2.50;;;;;;;6.77;49.17;100617.34;8545946;27;20049;-75
2022/04/17 08:39:08;;;;;;;6.45;2.20;;;;;;;6.93;48.26;100610.31;8542491;27;20043;-77
2022/04/17 08:43:09;;;;;;;4.97;2.10;;;;;;;7.10;47.13;100611.09;8521835;27;20043;-76
2022/04/17 08:47:10;;;;;;;6.25;2.42;;;;;;;7.12;46.79;100607.09;8549427;27;20137;-75
2022/04/17 08:51:11;;;;;;;5.85;2.47;;;;;;;7.18;47.20;100603.41;8533479;27;20038;-76
2022/04/17 08:55:12;;;;;;;7.05;2.40;;;;;;;7.33;46.95;100593.91;8495741;27;20497;-79
2022/04/17 08:59:15;;;;;;;6.82;2.55;;;;;;;7.43;46.27;100589.47;8519326;27;20039;-77
2022/04/17 09:03:16;;;;;;;6.63;2.42;;;;;;;7.69;44.38;100593.22;8488917;27;20123;-76
2022/04/17 09:07:17;;;;;;;4.85;2.20;;;;;;;7.60;45.03;100578.63;8531456;27;20062;-76
2022/04/17 09:11:25;;;;;;;4.75;2.38;;;;;;;7.63;45.05;100573.53;8532160;27;20125;-74
2022/04/17 09:15:28;;;;;;;3.25;1.92;;;;;;;7.85;43.96;100570.81;8544616;27;20042;-77
2022/04/17 09:19:28;;;;;;;5.40;2.42;;;;;;;8.05;43.60;100570.16;8522116;27;20042;-74
2022/04/17 09:23:37;;;;;;;4.45;2.10;;;;;;;8.00;43.48;100579.00;8531752;27;20142;-76
2022/04/17 09:27:41;;;;;;;5.88;2.40;;;;;;;8.19;42.93;100563.31;8528972;27;20050;-75
2022/04/17 09:31:42;;;;;;;3.63;1.80;;;;;;;8.20;41.69;100556.00;8483479;27;20051;-75
2022/04/17 09:35:54;;;;;;;6.28;2.33;;;;;;;8.30;42.02;100545.38;8522353;27;20549;-75
2022/04/17 09:40:06;;;;;;;5.18;1.70;;;;;;;8.50;41.47;100548.19;8504853;27;20042;-74
2022/04/17 09:44:11;;;;;;;5.15;2.13;;;;;;;8.67;41.63;100546.13;8513487;27;20078;-75
2022/04/17 09:48:18;;;;;;;3.53;1.75;;;;;;;8.77;41.09;100534.63;8514076;27;20051;-75
2022/04/17 09:52:20;;;;;;;5.20;2.25;;;;;;;8.94;41.88;100523.63;8510017;27;20053;-74
2022/04/17 09:56:32;;;;;;;5.38;2.40;;;;;;;9.09;41.73;100531.78;8530274;27;20553;-74
2022/04/17 10:00:41;;;;;;;5.13;2.53;;;;;;;9.14;41.94;100521.84;8530669;27;20042;-75
2022/04/17 10:04:45;;;;;;;6.95;2.25;;;;;;;9.42;42.02;100520.53;8529586;27;20039;-74
2022/04/17 10:08:46;;;;;;;3.60;1.85;;;;;;;9.65;40.71;100514.66;8526511;27;20034;-75
2022/04/17 10:12:47;;;;;;;5.10;2.63;;;;;;;9.74;41.85;100514.94;8511636;27;20062;-75
2022/04/17 10:16:50;;;;;;;5.47;2.50;;;;;;;9.84;40.86;100511.41;8492655;27;20047;-75
2022/04/17 10:20:51;;;;;;;7.85;2.70;;;;;;;9.82;40.50;100509.00;8529154;27;20039;-75
2022/04/17 10:24:52;;;;;;;5.85;2.83;;;;;;;9.85;40.42;100507.66;8529687;27;20046;-75
2022/04/17 10:28:56;;;;;;;6.18;2.17;;;;;;;10.11;39.43;100501.16;8529244;27;20054;-75
2022/04/17 10:33:15;;;;;;;4.63;2.72;;;;;;;9.94;38.36;100495.25;8528798;27;20321;-76
2022/04/17 10:37:53;;;;;;;6.75;2.40;;;;;;;10.10;39.48;100499.53;8563550;27;20449;-73
2022/04/17 10:41:55;;;;;;;6.40;2.20;;;;;;;9.96;38.31;100490.38;8563594;27;20090;-74
2022/04/17 10:46:09;;;;;;;9.57;2.90;;;;;;;10.06;38.43;100471.47;8546823;27;20850;-75
2022/04/17 10:50:10;;;;;;;6.32;2.22;;;;;;;10.17;39.36;100473.13;8532197;27;20050;-75
2022/04/17 10:54:14;;;;;;;10.13;2.42;;;;;;;10.30;39.47;100461.75;8529759;27;20072;-74
2022/04/17 10:58:15;;;;;;;4.78;1.80;;;;;;;10.52;37.67;100459.50;8477488;27;20051;-75
2022/04/17 11:02:18;;;;;;;3.42;1.92;;;;;;;10.37;37.58;100467.66;8509836;27;20043;-74
2022/04/17 11:06:33;;;;;;;6.00;1.90;;;;;;;10.39;37.81;100470.91;8537905;27;20125;-76
2022/04/17 11:10:41;;;;;;;5.50;2.00;;;;;;;10.59;37.16;100443.84;8523696;27;20122;-74
2022/04/17 11:14:55;;;;;;;4.82;2.28;;;;;;;10.62;37.08;100452.47;8521711;27;20051;-75
2022/04/17 11:18:57;;;;;;;7.00;3.13;;;;;;;10.48;36.27;100442.25;8485957;27;20125;-76
2022/04/17 11:23:01;;;;;;;8.80;3.60;;;;;;;10.85;36.87;100441.00;8414934;27;20036;-75
2022/04/17 11:27:02;;;;;;;5.78;2.30;;;;;;;11.03;36.93;100429.56;8504439;27;20058;-75
2022/04/17 11:31:03;;;;;;;19.13;5.72;;;;;;;11.18;36.88;100429.47;8508433;27;20130;-73
2022/04/17 11:35:05;;;;;;;4.30;2.20;;;;;;;11.19;37.25;100425.69;8522090;27;20042;-75
2022/04/17 11:39:06;;;;;;;3.70;1.90;;;;;;;11.47;36.01;100409.81;8529951;27;20128;-73
2022/04/17 11:43:09;;;;;;;6.15;2.00;;;;;;;11.21;37.42;100423.50;8540607;27;20429;-74
2022/04/17 11:47:18;;;;;;;5.18;2.08;;;;;;;11.29;36.96;100404.00;8476469;27;20038;-74
2022/04/17 11:51:20;;;;;;;8.80;3.33;;;;;;;11.25;36.20;100402.94;8536542;27;20087;-75
2022/04/17 11:55:35;;;;;;;17.02;6.50;;;;;;;11.42;35.96;100397.91;8476509;27;20543;-75
2022/04/17 11:59:50;;;;;;;3.75;1.70;;;;;;;11.47;34.60;100399.81;8530415;27;20034;-73
2022/04/17 12:03:55;;;;;;;8.15;3.13;;;;;;;11.74;35.17;100377.66;8522651;27;20047;-76
2022/04/17 12:08:02;;;;;;;4.22;2.33;;;;;;;11.75;34.86;100373.84;8534865;27;20093;-75
2022/04/17 12:12:10;;;;;;;6.68;3.35;;;;;;;11.67;34.82;100371.75;8487648;27;20046;-74
2022/04/17 12:16:11;;;;;;;6.25;2.20;;;;;;;11.74;34.77;100366.81;8516837;27;20111;-76
2022/04/17 12:20:14;;;;;;;7.72;2.22;;;;;;;11.95;33.97;100360.13;8522127;27;21221;-76
2022/04/17 12:24:15;;;;;;;2.83;1.63;;;;;;;11.95;33.47;100346.56;8534517;27;20047;-74
2022/04/17 12:28:16;;;;;;;5.72;2.80;;;;;;;11.97;33.86;100339.00;8486191;27;20066;-76
2022/04/17 12:32:20;;;;;;;7.65;2.83;;;;;;;12.30;35.03;100336.44;8509166;27;20142;-75
2022/04/17 12:36:22;;;;;;;7.70;2.00;;;;;;;12.23;33.29;100326.75;8522832;27;20050;-75
2022/04/17 12:40:23;;;;;;;7.53;3.90;;;;;;;12.32;34.60;100326.13;8532372;27;20050;-76
2022/04/17 12:44:32;;;;;;;8.73;4.07;;;;;;;12.11;33.17;100322.84;8531858;27;20492;-76
2022/04/17 12:48:35;;;;;;;4.57;2.40;;;;;;;12.21;33.40;100312.69;8532398;27;20442;-76
2022/04/17 12:52:36;;;;;;;6.93;1.90;;;;;;;12.41;32.83;100310.84;8525339;27;20039;-75
2022/04/17 12:56:38;;;;;;;9.82;3.63;;;;;;;12.55;34.17;100295.47;8531779;27;20411;-75
2022/04/17 13:00:39;;;;;;;6.10;2.50;;;;;;;12.74;31.38;100295.47;8495147;27;20055;-75
2022/04/17 13:04:45;;;;;;;8.40;2.97;;;;;;;12.72;32.86;100284.91;8531579;27;20199;-76
2022/04/17 13:09:12;;;;;;;8.00;3.20;;;;;;;12.79;33.13;100271.81;8531818;27;20046;-76
2022/04/17 13:13:13;;;;;;;9.50;4.00;;;;;;;12.89;32.40;100273.56;8495847;27;20051;-74
2022/04/17 13:17:14;;;;;;;4.50;2.38;;;;;;;12.65;33.76;100268.22;8531238;27;20050;-74
2022/04/17 13:21:15;;;;;;;3.30;1.98;;;;;;;12.79;32.06;100258.25;8531343;27;20488;-76
2022/04/17 13:25:18;;;;;;;7.22;2.65;;;;;;;13.33;32.20;100248.66;8531160;27;20054;-75
2022/04/17 13:29:39;;;;;;;8.68;3.50;;;;;;;14.93;29.84;100250.19;8530707;27;20107;-76
2022/04/17 13:33:41;;;;;;;12.20;4.28;;;;;;;14.92;28.80;100248.56;8391105;28;20529;-75
2022/04/17 13:42:02;;;;;;;11.50;5.07;;;;;;;17.63;26.88;100231.69;8362648;28;20759;-76
2022/04/17 13:46:03;;;;;;;10.32;3.90;;;;;;;18.35;25.94;100214.22;8341154;28;20053;-74
2022/04/17 13:50:07;;;;;;;6.90;2.13;;;;;;;19.65;24.57;100207.16;8391193;28;20536;-76
2022/04/17 13:54:10;;;;;;;7.10;2.03;;;;;;;21.26;23.48;100219.75;8418149;28;20064;-76
2022/04/17 13:58:11;;;;;;;3.50;1.60;;;;;;;21.51;22.55;100214.09;8393403;28;20045;-76
2022/04/17 14:02:12;;;;;;;3.08;1.65;;;;;;;22.25;20.63;100208.41;8396805;28;20074;-76
2022/04/17 14:06:13;;;;;;;4.82;2.70;;;;;;;22.49;20.79;100209.28;8442365;28;20074;-76
2022/04/17 14:10:15;;;;;;;2.75;1.73;;;;;;;23.02;20.96;100204.88;8460650;28;20048;-77
2022/04/17 14:14:15;;;;;;;9.85;5.63;;;;;;;23.19;20.44;100198.09;8463982;27;20635;-77
2022/04/17 14:18:17;;;;;;;2.90;1.70;;;;;;;23.45;20.14;100203.66;8484400;27;20103;-76
2022/04/17 14:22:19;;;;;;;6.07;1.50;;;;;;;23.94;19.80;100190.69;8475959;27;20051;-78
2022/04/17 14:26:21;;;;;;;3.80;1.70;;;;;;;24.44;18.49;100185.88;8496246;27;20594;-75
2022/04/17 14:30:22;;;;;;;2.08;1.23;;;;;;;24.70;17.99;100174.75;8471259;27;20473;-76
2022/04/17 14:34:23;;;;;;;2.35;1.75;;;;;;;23.80;17.79;100179.44;8450701;27;20036;-76
2022/04/17 14:38:24;;;;;;;2.60;1.98;;;;;;;23.08;19.09;100176.66;8452613;27;20048;-75
2022/04/17 14:42:25;;;;;;;6.22;2.70;;;;;;;23.10;18.71;100168.84;8461475;28;20096;-76
2022/04/17 14:46:26;;;;;;;5.18;1.63;;;;;;;23.49;18.83;100163.19;8480327;27;20100;-76
2022/04/17 14:50:27;;;;;;;5.30;2.00;;;;;;;24.56;18.05;100149.72;8478024;27;20105;-77
2022/04/17 14:54:29;;;;;;;4.35;2.25;;;;;;;25.10;17.49;100157.44;8477661;27;20040;-77
2022/04/17 14:58:30;;;;;;;3.45;1.70;;;;;;;24.37;17.56;100141.63;8476463;27;20043;-76
2022/04/17 15:02:31;;;;;;;4.55;2.50;;;;;;;23.98;17.44;100136.38;8484685;27;20042;-77
2022/04/17 15:06:33;;;;;;;2.25;1.30;;;;;;;24.28;17.93;100138.34;8497560;27;20061;-76
2022/04/17 15:10:36;;;;;;;2.65;1.25;;;;;;;24.24;17.74;100132.00;8528560;27;20129;-75
2022/04/17 15:14:39;;;;;;;2.33;1.30;;;;;;;23.74;17.90;100131.28;8514369;27;20035;-76
2022/04/17 15:18:40;;;;;;;2.70;1.25;;;;;;;22.78;18.71;100139.91;8485184;27;20400;-76
2022/04/17 15:22:41;;;;;;;3.05;1.50;;;;;;;22.82;18.78;100129.75;8448135;27;20051;-76
2022/04/17 15:26:42;;;;;;;2.20;1.40;;;;;;;24.74;18.18;100123.13;8466648;28;20465;-76
2022/04/17 15:30:43;;;;;;;2.22;1.45;;;;;;;24.48;17.03;100114.91;8510816;27;20100;-76
2022/04/17 15:34:44;;;;;;;2.10;1.30;;;;;;;24.45;17.71;100109.34;8525382;27;20131;-76
2022/04/17 15:38:46;;;;;;;3.92;1.63;;;;;;;23.15;19.12;100105.16;8519177;27;20055;-76
2022/04/17 15:42:48;;;;;;;3.05;1.80;;;;;;;21.33;20.42;100115.53;8471449;27;20090;-76
2022/04/17 15:51:08;;;;;;;3.17;1.77;;;;;;;21.65;20.47;100104.47;8513886;27;20051;-77
2022/04/17 15:55:09;;;;;;;3.70;1.70;;;;;;;21.00;20.84;100102.13;8514614;27;20047;-77
2022/04/17 15:59:11;;;;;;;3.30;1.30;;;;;;;21.26;20.34;100098.84;8508344;27;20042;-76
2022/04/17 16:03:12;;;;;;;2.30;1.52;;;;;;;21.36;19.87;100098.31;8465968;27;20055;-75
2022/04/17 16:07:13;;;;;;;5.15;2.00;;;;;;;19.46;21.19;100094.56;8479299;27;20047;-76
2022/04/17 16:11:14;;;;;;;2.58;1.70;;;;;;;18.10;22.85;100088.34;8508737;27;20047;-75
2022/04/17 16:15:15;;;;;;;3.72;1.95;;;;;;;16.92;23.96;100092.22;8521518;27;20043;-75
2022/04/17 16:19:19;;;;;;;2.58;1.50;;;;;;;17.04;25.00;100086.91;8475805;27;20095;-77
2022/04/17 16:23:20;;;;;;;2.53;1.70;;;;;;;16.33;24.55;100096.69;8520743;27;20039;-73
2022/04/17 16:27:23;;;;;;;2.75;1.60;;;;;;;15.46;25.50;100095.81;8510997;27;20050;-72
2022/04/17 16:31:25;;;;;;;2.80;1.92;;;;;;;14.78;26.68;100091.72;8515421;27;20401;-73
2022/04/17 16:35:27;;;;;;;10.90;5.10;;;;;;;14.15;27.45;100088.41;8523543;27;20066;-74
2022/04/17 16:39:27;;;;;;;13.13;6.00;;;;;;;13.94;28.36;100094.34;8529882;27;20385;-74
2022/04/17 16:43:29;;;;;;;14.55;6.97;;;;;;;13.28;29.05;100086.81;8511089;27;20042;-73
2022/04/17 16:47:29;;;;;;;4.55;1.98;;;;;;;13.04;29.87;100081.56;8498224;27;20062;-73
2022/04/17 16:51:31;;;;;;;5.45;2.60;;;;;;;13.01;30.24;100082.16;8512192;27;20047;-74
2022/04/17 16:55:31;;;;;;;4.03;2.30;;;;;;;12.79;30.66;100073.94;8509384;27;20183;-73
2022/04/17 16:59:32;;;;;;;9.20;3.00;;;;;;;12.69;31.44;100079.50;8543317;27;20038;-73
2022/04/17 17:03:33;;;;;;;5.20;2.55;;;;;;;12.44;31.52;100066.41;8473787;27;20044;-73
2022/04/17 17:07:34;;;;;;;8.35;3.45;;;;;;;12.31;31.92;100069.91;8498181;27;20118;-74
2022/04/17 17:11:35;;;;;;;6.47;3.63;;;;;;;12.33;32.63;100060.38;8499967;27;20424;-73
2022/04/17 17:15:37;;;;;;;8.00;4.72;;;;;;;12.10;32.83;100062.13;8542673;27;20049;-74
2022/04/17 17:19:38;;;;;;;15.18;7.40;;;;;;;12.02;32.76;100070.91;8522096;27;20038;-73
2022/04/17 17:23:40;;;;;;;8.68;4.38;;;;;;;11.90;33.17;100073.25;8529041;27;20631;-74
2022/04/17 17:27:41;;;;;;;15.75;7.55;;;;;;;11.60;33.88;100073.66;8528414;27;20051;-73
2022/04/17 17:31:43;;;;;;;12.27;7.22;;;;;;;11.51;34.47;100075.41;8530953;27;20077;-73
2022/04/17 17:35:44;;;;;;;5.63;3.38;;;;;;;11.36;34.83;100069.13;8508815;27;20079;-73
2022/04/17 17:39:45;;;;;;;10.82;4.45;;;;;;;11.13;35.44;100064.53;8550084;27;20046;-73
2022/04/17 17:43:46;;;;;;;9.13;5.47;;;;;;;10.97;36.82;100065.81;8548853;27;20104;-74
2022/04/17 17:47:47;;;;;;;8.60;4.75;;;;;;;10.77;37.99;100066.03;8496300;27;20488;-74
2022/04/17 17:51:48;;;;;;;6.68;3.50;;;;;;;10.44;39.55;100057.72;8506698;27;20125;-74
2022/04/17 17:55:49;;;;;;;7.45;2.83;;;;;;;10.17;40.27;100062.81;8513655;27;20043;-74
2022/04/17 17:59:50;;;;;;;3.85;2.35;;;;;;;10.07;40.97;100057.47;8504322;27;20502;-76
2022/04/17 18:03:51;;;;;;;4.68;2.92;;;;;;;9.84;41.16;100063.56;8517405;27;20039;-75
2022/04/17 18:16:41;;;;;;;10.00;5.03;;;;;;;9.08;44.09;100053.19;8366274;28;20054;-75
2022/04/17 18:20:45;;;;;;;23.38;8.20;;;;;;;8.85;44.65;100049.22;8388288;28;20147;-75
2022/04/17 18:24:46;;;;;;;31.42;10.75;;;;;;;8.67;45.79;100056.00;8370279;28;20041;-76
2022/04/17 18:28:49;;;;;;;40.90;13.90;;;;;;;8.53;46.10;100054.97;8360399;28;20612;-75
2022/04/17 18:32:50;;;;;;;34.67;12.52;;;;;;;8.43;46.35;100054.97;8327929;28;20063;-75
2022/04/17 18:36:52;;;;;;;28.42;11.93;;;;;;;8.24;46.84;100040.44;8371034;28;20064;-74
2022/04/17 18:40:55;;;;;;;32.55;11.50;;;;;;;8.11;47.63;100041.78;8364685;28;20057;-73
2022/04/17 18:44:57;;;;;;;26.92;9.63;;;;;;;7.90;48.47;100035.59;8365687;28;20380;-73
2022/04/17 18:48:58;;;;;;;25.42;10.05;;;;;;;7.70;49.01;100035.59;8467759;27;20046;-73
2022/04/17 18:53:00;;;;;;;24.33;9.25;;;;;;;7.52;49.83;100038.75;8468958;27;20408;-73
2022/04/17 18:57:00;;;;;;;19.30;7.57;;;;;;;7.36;50.70;100039.81;8513237;27;20050;-73
2022/04/17 19:01:02;;;;;;;18.05;7.95;;;;;;;7.24;51.37;100036.56;8476830;27;20039;-73
2022/04/17 19:05:03;;;;;;;27.08;9.80;;;;;;;7.11;51.88;100027.91;8477867;27;20047;-73
2022/04/17 19:09:08;;;;;;;41.50;14.60;;;;;;;6.99;52.23;100018.47;8515242;27;20041;-73
2022/04/17 19:17:29;;;;;;;37.65;14.85;;;;;;;6.78;52.71;100013.00;8519305;27;20556;-73
2022/04/17 19:21:31;;;;;;;31.63;11.80;;;;;;;6.75;53.30;100010.03;8513203;27;20399;-73